createdAt,value
2023-03-14T00:03:03.931Z,95679.19
2023-03-14T00:08:05.833Z,95656.69
2023-03-14T00:13:07.547Z,95647.75
2023-03-14T00:18:09.126Z,95657.75
2023-03-14T00:23:10.916Z,95658.75
2023-03-14T00:28:12.691Z,95655.25
2023-03-14T00:33:15.374Z,95672.19
2023-03-14T00:38:17.207Z,95687.44
2023-03-14T00:43:22.521Z,95700.13
2023-03-14T00:48:24.392Z,95720.00
2023-03-14T00:53:26.301Z,95694.59
2023-03-14T00:58:28.162Z,95691.56
2023-03-14T01:03:29.971Z,95695.38
2023-03-14T01:08:31.898Z,95719.44
2023-03-14T01:13:33.754Z,95722.56
2023-03-14T01:18:38.978Z,95739.41
2023-03-14T01:23:41.021Z,95732.25
2023-03-14T01:28:43.011Z,95729.44
2023-03-14T01:33:47.037Z,95725.25
2023-03-14T01:38:48.966Z,95716.78
2023-03-14T01:43:52.839Z,95707.63
2023-03-14T01:49:11.962Z,95702.91
2023-03-14T01:54:23.169Z,95715.25
2023-03-14T01:59:26.622Z,95696.38
2023-03-14T02:04:34.004Z,95713.72
2023-03-14T02:09:37.597Z,95691.03
2023-03-14T02:14:40.045Z,95667.38
2023-03-14T02:20:29.156Z,95663.97
2023-03-14T02:25:49.414Z,95671.81
2023-03-14T02:30:51.386Z,95682.75
2023-03-14T02:36:02.717Z,95679.25
2023-03-14T02:41:05.364Z,95650.66
2023-03-14T02:46:19.322Z,95631.47
2023-03-14T02:51:23.443Z,95625.13
2023-03-14T02:56:25.535Z,95608.88
2023-03-14T03:01:27.446Z,95627.63
2023-03-14T03:06:29.309Z,95629.91
2023-03-14T03:11:32.670Z,95636.66
2023-03-14T03:16:35.042Z,95641.41
2023-03-14T03:21:36.872Z,95664.31
2023-03-14T03:26:39.841Z,95644.56
2023-03-14T03:31:46.480Z,95640.81
2023-03-14T03:36:48.877Z,95622.97
2023-03-14T03:41:50.827Z,95605.03
2023-03-14T03:46:53.973Z,95609.63
2023-03-14T03:51:55.773Z,95630.88
2023-03-14T03:56:57.769Z,95615.84
2023-03-14T04:01:59.748Z,95612.53
2023-03-14T04:07:01.835Z,95610.41
2023-03-14T04:12:03.922Z,95617.97
2023-03-14T04:17:30.070Z,95625.81
2023-03-14T04:22:31.973Z,95654.16
2023-03-14T04:27:35.768Z,95621.47
2023-03-14T04:32:41.389Z,95628.69
2023-03-14T04:37:44.361Z,95608.59
2023-03-14T04:42:49.966Z,95609.59
2023-03-14T04:47:52.140Z,95612.19
2023-03-14T04:52:55.230Z,95610.06
2023-03-14T04:57:57.323Z,95605.66
2023-03-14T05:03:00.456Z,95596.22
2023-03-14T05:08:21.191Z,95591.34
2023-03-14T05:13:39.211Z,95580.63
2023-03-14T05:19:02.669Z,95572.16
2023-03-14T05:24:23.308Z,95563.13
2023-03-14T05:29:27.718Z,95565.97
2023-03-14T05:35:08.806Z,95563.69
2023-03-14T05:40:33.669Z,95557.28
2023-03-14T05:45:55.862Z,95563.25
2023-03-14T05:51:23.038Z,95554.91
2023-03-14T05:56:41.574Z,95573.19
2023-03-14T06:01:46.203Z,95557.16
2023-03-14T06:06:55.340Z,95569.13
2023-03-14T06:11:57.949Z,95571.50
2023-03-14T06:17:00.272Z,95589.91
2023-03-14T06:22:05.132Z,95599.47
2023-03-14T06:27:09.536Z,95582.56
2023-03-14T06:32:11.327Z,95577.03
2023-03-14T06:37:13.555Z,95574.56
2023-03-14T06:42:16.034Z,95566.78
2023-03-14T06:47:19.004Z,95567.88
2023-03-14T06:52:21.473Z,95576.69
2023-03-14T06:57:23.489Z,95573.19
2023-03-14T07:02:39.740Z,95573.63
2023-03-14T07:07:48.985Z,95591.94
2023-03-14T07:12:53.726Z,95587.75
2023-03-14T07:17:57.142Z,95592.84
2023-03-14T07:23:01.094Z,95603.91
2023-03-14T07:28:16.295Z,95595.00
2023-03-14T07:33:20.644Z,95594.53
2023-03-14T07:38:23.107Z,95589.19
2023-03-14T07:44:03.567Z,95598.22
2023-03-14T07:49:05.318Z,95603.41
2023-03-14T07:54:07.044Z,95597.06
2023-03-14T07:59:08.786Z,95597.09
2023-03-14T08:04:10.879Z,95604.31
2023-03-14T08:09:12.476Z,95598.00
2023-03-14T08:14:14.086Z,95584.41
2023-03-14T08:19:15.692Z,95582.13
2023-03-14T08:24:17.725Z,95569.75
2023-03-14T08:29:19.328Z,95565.38
2023-03-14T08:34:21.174Z,95557.28
2023-03-14T08:39:22.817Z,95549.13
2023-03-14T08:44:24.556Z,95566.75
2023-03-14T08:49:26.285Z,95560.34
2023-03-14T08:54:28.016Z,95573.31
2023-03-14T08:59:29.823Z,95576.75
2023-03-14T09:04:32.424Z,95591.25
2023-03-14T09:09:34.140Z,95592.97
2023-03-14T09:14:35.866Z,95615.59
2023-03-14T09:19:37.650Z,95604.75
2023-03-14T09:24:40.039Z,95612.84
2023-03-14T09:29:41.679Z,95616.19
2023-03-14T09:34:43.307Z,95608.69
2023-03-14T09:39:44.895Z,95614.31
2023-03-14T09:45:06.687Z,95627.91
2023-03-14T09:50:15.610Z,95622.59
2023-03-14T09:55:20.629Z,95615.28
2023-03-14T10:00:26.805Z,95613.69
2023-03-14T10:05:30.576Z,95614.09
2023-03-14T10:10:33.338Z,95611.88
2023-03-14T10:15:35.776Z,95626.63
2023-03-14T10:20:40.392Z,95617.06
2023-03-14T10:25:45.076Z,95608.69
2023-03-14T10:30:47.524Z,95610.63
2023-03-14T10:36:00.666Z,95617.47
2023-03-14T10:41:04.164Z,95618.09
2023-03-14T10:46:15.759Z,95611.63
2023-03-14T10:51:37.685Z,95625.41
2023-03-14T10:56:39.613Z,95628.34
2023-03-14T11:01:53.808Z,95615.41
2023-03-14T11:07:17.294Z,95617.56
2023-03-14T11:12:37.061Z,95613.78
2023-03-14T11:18:20.829Z,95612.63
2023-03-14T11:23:26.648Z,95609.63
2023-03-14T11:28:37.629Z,95625.28
2023-03-14T11:33:47.850Z,95631.59
2023-03-14T11:38:51.573Z,95628.16
2023-03-14T11:43:59.326Z,95632.34
2023-03-14T11:49:01.368Z,95623.94
2023-03-14T11:54:17.204Z,95636.81
2023-03-14T11:59:43.400Z,95625.06
2023-03-14T12:04:55.660Z,95623.81
2023-03-14T12:09:57.729Z,95616.13
2023-03-14T12:15:01.737Z,95609.72
2023-03-14T12:20:15.617Z,95609.34
2023-03-14T12:25:21.235Z,95603.09
2023-03-14T12:30:29.420Z,95598.53
2023-03-14T12:35:39.573Z,95592.91
2023-03-14T12:41:08.000Z,95596.88
2023-03-14T12:46:16.484Z,95590.84
2023-03-14T12:51:46.406Z,95594.22
2023-03-14T12:57:05.534Z,95590.88
2023-03-14T13:02:07.075Z,95584.41
2023-03-14T13:07:34.478Z,95576.34
2023-03-14T13:13:02.016Z,95567.53
2023-03-14T13:18:24.939Z,95566.88
2023-03-14T13:23:30.053Z,95561.22
2023-03-14T13:28:32.873Z,95549.63
2023-03-14T13:33:35.836Z,95540.19
2023-03-14T13:38:37.535Z,95540.25
2023-03-14T13:43:44.463Z,95557.81
2023-03-14T13:48:50.741Z,95549.09
2023-03-14T13:53:54.583Z,95551.00
2023-03-14T13:58:56.774Z,95556.56
2023-03-14T14:04:03.021Z,95566.00
2023-03-14T14:09:28.140Z,95547.66
2023-03-14T14:14:41.553Z,95551.34
2023-03-14T14:19:44.979Z,95540.88
2023-03-14T14:24:47.341Z,95528.84
2023-03-14T14:30:02.486Z,95539.97
2023-03-14T14:35:04.935Z,95527.19
2023-03-14T14:40:17.463Z,95536.63
2023-03-14T14:45:22.095Z,95540.66
2023-03-14T14:50:54.073Z,95542.00
2023-03-14T14:55:58.419Z,95540.00
2023-03-14T15:01:15.615Z,95545.72
2023-03-14T15:06:18.029Z,95549.63
2023-03-14T15:11:25.536Z,95564.63
2023-03-14T15:16:32.259Z,95574.66
2023-03-14T15:21:34.743Z,95579.63
2023-03-14T15:26:36.385Z,95575.75
2023-03-14T15:31:38.245Z,95586.16
2023-03-14T15:36:39.905Z,95600.56
2023-03-14T15:41:41.596Z,95612.34
2023-03-14T15:46:43.217Z,95623.91
2023-03-14T15:51:44.827Z,95643.22
2023-03-14T15:56:46.680Z,95641.34
2023-03-14T16:01:49.072Z,95649.63
2023-03-14T16:06:50.678Z,95658.84
2023-03-14T16:11:52.328Z,95689.44
2023-03-14T16:16:55.802Z,95793.19
2023-03-14T16:21:57.563Z,95814.59
2023-03-14T16:26:59.267Z,95832.81
2023-03-14T16:32:00.984Z,95881.81
2023-03-14T16:37:02.694Z,95926.75
2023-03-14T16:42:04.335Z,95959.88
2023-03-14T16:47:10.545Z,95996.94
2023-03-14T16:52:12.768Z,96037.47
2023-03-14T16:57:14.390Z,96060.16
2023-03-14T17:02:16.066Z,96088.63
2023-03-14T17:07:17.697Z,96148.38
2023-03-14T17:12:19.298Z,96187.78
2023-03-14T17:17:20.967Z,96221.56
2023-03-14T17:22:25.148Z,96266.63
2023-03-14T17:27:29.439Z,96294.97
2023-03-14T17:32:31.208Z,96314.09
2023-03-14T17:37:32.910Z,96349.06
2023-03-14T17:42:34.517Z,96364.16
2023-03-14T17:47:36.177Z,96388.69
2023-03-14T17:52:38.181Z,96401.69
2023-03-14T17:57:40.287Z,96406.19
2023-03-14T18:02:42.111Z,96413.22
2023-03-14T18:07:43.984Z,96442.59
2023-03-14T18:12:45.677Z,96440.50
2023-03-14T18:17:47.330Z,96456.84
2023-03-14T18:22:48.973Z,96485.72
2023-03-14T18:27:50.689Z,96479.97
2023-03-14T18:32:52.405Z,96496.31
2023-03-14T18:37:54.140Z,96507.84
2023-03-14T18:42:56.530Z,96509.31
2023-03-14T18:47:58.285Z,96530.16
2023-03-14T18:52:59.949Z,96536.88
2023-03-14T18:58:01.960Z,96563.34
2023-03-14T19:03:04.254Z,96579.53
2023-03-14T19:08:05.898Z,96574.69
2023-03-14T19:13:07.535Z,96586.78
2023-03-14T19:18:11.009Z,96604.22
2023-03-14T19:23:16.714Z,96619.13
2023-03-14T19:28:18.417Z,96625.34
2023-03-14T19:33:20.781Z,96636.56
2023-03-14T19:38:22.716Z,96645.78
2023-03-14T19:43:25.343Z,96663.59
2023-03-14T19:48:30.513Z,96677.63
2023-03-14T19:53:32.700Z,96684.22
2023-03-14T19:58:35.139Z,96700.94
2023-03-14T20:03:37.392Z,96714.91
2023-03-14T20:08:40.119Z,96716.50
2023-03-14T20:13:41.898Z,96727.44
2023-03-14T20:18:43.715Z,96738.06
2023-03-14T20:23:45.445Z,96737.34
2023-03-14T20:28:48.185Z,96757.63
2023-03-14T20:33:51.504Z,96767.59
2023-03-14T20:38:53.687Z,96779.13
2023-03-14T20:43:55.331Z,96796.25
2023-03-14T20:48:56.969Z,96803.69
2023-03-14T20:53:58.996Z,96814.47
2023-03-14T20:59:00.609Z,96827.75
2023-03-14T21:04:02.460Z,96841.56
2023-03-14T21:09:05.442Z,96842.53
2023-03-14T21:14:07.309Z,96857.78
2023-03-14T21:19:09.026Z,96853.00
2023-03-14T21:24:10.726Z,96851.47
2023-03-14T21:29:12.372Z,96860.59
2023-03-14T21:34:14.233Z,96860.28
2023-03-14T21:39:15.937Z,96869.59
2023-03-14T21:44:19.164Z,96879.53
2023-03-14T21:49:20.778Z,96885.31
2023-03-14T21:54:22.449Z,96904.75
2023-03-14T21:59:24.084Z,96899.59
2023-03-14T22:04:34.519Z,96904.59
2023-03-14T22:09:39.636Z,96910.06
2023-03-14T22:14:41.241Z,96911.09
2023-03-14T22:19:42.931Z,96932.66
2023-03-14T22:24:44.770Z,96931.22
2023-03-14T22:29:46.425Z,96940.81
2023-03-14T22:34:48.060Z,96948.78
2023-03-14T22:39:49.894Z,96957.25
2023-03-14T22:44:52.735Z,96968.66
2023-03-14T22:49:54.434Z,96967.16
2023-03-14T22:54:56.149Z,96976.19
2023-03-14T22:59:57.903Z,96980.75
2023-03-14T23:04:59.582Z,96984.00
2023-03-14T23:10:01.223Z,96985.38
2023-03-14T23:15:06.066Z,96979.00
2023-03-14T23:20:09.320Z,96989.66
2023-03-14T23:25:11.611Z,97004.09
2023-03-14T23:30:15.106Z,97017.41
2023-03-14T23:35:16.876Z,97026.03
2023-03-14T23:40:18.694Z,97034.78
2023-03-14T23:45:20.479Z,97035.31
2023-03-14T23:50:22.187Z,97043.31
2023-03-14T23:55:23.976Z,97053.97
